Time;durP1;ratioP1;P1;durP2;ratioP2;P2;SDS_P1;SDS_P2;PMS_P1;PMS_P2;Temp;Humidity;BMP_temperature;BMP_pressure;BME280_temperature;BME280_humidity;BME280_pressure;Samples;Min_cycle;Max_cycle;Signal;HPM_P1;HPM_P2
2022/08/17 00:01:28;;;;;;;51.20;27.98;;;;;;;;;;6223813;28;20165;-59
2022/08/17 00:04:29;;;;;;;45.85;25.48;;;;;;;;;;6221181;28;20059;-58
2022/08/17 00:07:29;;;;;;;43.97;25.70;;;;;;;;;;6217501;28;20042;-56
2022/08/17 00:10:31;;;;;;;47.43;26.73;;;;;;;;;;6216848;28;20049;-56
2022/08/17 00:13:36;;;;;;;52.22;28.27;;;;;;;;;;6217419;28;20156;-58
2022/08/17 00:16:41;;;;;;;47.00;26.40;;;;;;;;;;6218020;28;20046;-56
2022/08/17 00:19:42;;;;;;;55.70;28.55;;;;;;;;;;6216644;28;20133;-59
2022/08/17 00:22:43;;;;;;;51.83;28.70;;;;;;;;;;6216257;28;20046;-59
2022/08/17 00:25:45;;;;;;;49.57;27.47;;;;;;;;;;6217308;28;20054;-54
2022/08/17 00:28:46;;;;;;;50.75;27.98;;;;;;;;;;6220985;28;20398;-56
2022/08/17 00:31:48;;;;;;;49.00;27.37;;;;;;;;;;6218553;28;20107;-58
2022/08/17 00:34:49;;;;;;;47.00;26.92;;;;;;;;;;6230696;28;20132;-60
2022/08/17 00:37:50;;;;;;;46.57;27.50;;;;;;;;;;6230283;28;20043;-58
2022/08/17 00:40:57;;;;;;;49.88;27.85;;;;;;;;;;6225605;28;20057;-59
2022/08/17 00:44:00;;;;;;;51.55;27.63;;;;;;;;;;6220015;28;20037;-50
2022/08/17 00:47:01;;;;;;;47.95;26.50;;;;;;;;;;6217189;28;20507;-59
2022/08/17 00:50:04;;;;;;;46.47;26.63;;;;;;;;;;6223174;28;20050;-59
2022/08/17 00:53:06;;;;;;;52.05;25.80;;;;;;;;;;6215330;28;20145;-58
2022/08/17 00:56:10;;;;;;;47.78;26.05;;;;;;;;;;6214368;28;20054;-56
2022/08/17 00:59:15;;;;;;;46.95;25.95;;;;;;;;;;6217347;28;20045;-54
2022/08/17 01:02:18;;;;;;;50.63;27.08;;;;;;;;;;6215316;28;20584;-57
2022/08/17 01:05:24;;;;;;;49.20;26.02;;;;;;;;;;6217577;28;20042;-58
2022/08/17 01:08:28;;;;;;;44.58;25.20;;;;;;;;;;6217667;28;20076;-55
2022/08/17 01:11:31;;;;;;;43.05;25.70;;;;;;;;;;6214299;28;20045;-59
2022/08/17 01:14:32;;;;;;;47.42;26.30;;;;;;;;;;6217276;28;20040;-53
2022/08/17 01:17:33;;;;;;;44.53;26.13;;;;;;;;;;6213444;28;20038;-60
2022/08/17 01:20:34;;;;;;;47.67;25.90;;;;;;;;;;6215204;28;20421;-54
2022/08/17 01:23:36;;;;;;;47.95;25.80;;;;;;;;;;6216429;28;20049;-60
2022/08/17 01:26:41;;;;;;;41.53;24.70;;;;;;;;;;6214520;28;20046;-60
2022/08/17 01:29:47;;;;;;;50.03;26.73;;;;;;;;;;6215449;28;20132;-60
2022/08/17 01:32:47;;;;;;;44.65;25.88;;;;;;;;;;6217247;28;20648;-53
2022/08/17 01:35:49;;;;;;;47.70;25.60;;;;;;;;;;6222882;28;20065;-55
2022/08/17 01:38:50;;;;;;;49.22;26.63;;;;;;;;;;6215712;28;20081;-59
2022/08/17 01:41:57;;;;;;;39.23;23.77;;;;;;;;;;6231670;28;20080;-57
2022/08/17 01:45:03;;;;;;;39.45;24.42;;;;;;;;;;6235307;28;20973;-54
2022/08/17 01:48:04;;;;;;;45.80;25.52;;;;;;;;;;6223200;28;20081;-60
2022/08/17 01:51:06;;;;;;;52.67;27.37;;;;;;;;;;6219584;28;20677;-61
2022/08/17 01:54:11;;;;;;;52.80;28.17;;;;;;;;;;6217495;28;20042;-60
2022/08/17 01:57:12;;;;;;;49.33;26.90;;;;;;;;;;6219520;28;20133;-60
2022/08/17 02:00:13;;;;;;;50.65;27.50;;;;;;;;;;6223257;28;20173;-59
2022/08/17 02:03:14;;;;;;;49.20;26.50;;;;;;;;;;6208340;28;20057;-57
2022/08/17 02:06:15;;;;;;;51.80;27.10;;;;;;;;;;6227388;28;20299;-56
2022/08/17 02:09:15;;;;;;;49.27;27.40;;;;;;;;;;6223393;28;20847;-50
2022/08/17 02:12:16;;;;;;;54.53;29.00;;;;;;;;;;6226351;28;20180;-59
2022/08/17 02:15:16;;;;;;;47.00;26.17;;;;;;;;;;6225312;28;20046;-60
2022/08/17 02:18:17;;;;;;;48.17;25.83;;;;;;;;;;6224367;28;20049;-56
2022/08/17 02:21:18;;;;;;;48.40;25.80;;;;;;;;;;6223490;28;20421;-58
2022/08/17 02:24:24;;;;;;;51.13;27.40;;;;;;;;;;6227930;28;20053;-56
2022/08/17 02:27:25;;;;;;;44.78;25.25;;;;;;;;;;6223725;28;20046;-58
2022/08/17 02:30:25;;;;;;;44.87;25.30;;;;;;;;;;6219173;28;21108;-57
2022/08/17 02:33:26;;;;;;;42.23;24.70;;;;;;;;;;6222038;28;20125;-58
2022/08/17 02:36:27;;;;;;;50.07;25.73;;;;;;;;;;6224630;28;20057;-57
2022/08/17 02:39:27;;;;;;;38.67;22.10;;;;;;;;;;6224332;28;20498;-59
2022/08/17 02:42:33;;;;;;;39.47;22.80;;;;;;;;;;6226656;28;20045;-58
2022/08/17 02:45:35;;;;;;;41.25;24.02;;;;;;;;;;6226491;28;20133;-59
2022/08/17 02:48:35;;;;;;;41.55;23.35;;;;;;;;;;6220909;28;20583;-59
2022/08/17 02:51:36;;;;;;;47.93;25.43;;;;;;;;;;6223360;28;20095;-56
2022/08/17 02:54:36;;;;;;;37.23;23.20;;;;;;;;;;6224188;28;20041;-59
2022/08/17 02:57:37;;;;;;;36.77;21.90;;;;;;;;;;6224106;28;20051;-59
2022/08/17 03:00:43;;;;;;;37.80;21.87;;;;;;;;;;6225333;28;20042;-57
2022/08/17 03:03:43;;;;;;;42.88;23.30;;;;;;;;;;6222356;28;20249;-55
2022/08/17 03:06:44;;;;;;;44.47;24.57;;;;;;;;;;6224184;28;20056;-59
2022/08/17 03:09:44;;;;;;;40.03;23.00;;;;;;;;;;6223342;28;20049;-57
2022/08/17 03:12:46;;;;;;;41.57;23.87;;;;;;;;;;6224639;28;20123;-59
2022/08/17 03:15:47;;;;;;;43.22;24.13;;;;;;;;;;6226372;28;20042;-57
2022/08/17 03:18:47;;;;;;;44.05;25.00;;;;;;;;;;6221506;28;20140;-60
2022/08/17 03:21:48;;;;;;;45.23;26.07;;;;;;;;;;6221558;28;20123;-60
2022/08/17 03:24:48;;;;;;;44.27;25.97;;;;;;;;;;6224724;28;20045;-58
2022/08/17 03:27:50;;;;;;;44.50;25.17;;;;;;;;;;6225559;28;20045;-54
2022/08/17 03:30:51;;;;;;;;;;;;;;;;;;6225933;28;20469;-58
2022/08/17 03:33:51;;;;;;;40.88;22.40;;;;;;;;;;6224783;28;19925;-59
2022/08/17 03:36:52;;;;;;;41.67;22.73;;;;;;;;;;6224222;28;20123;-59
2022/08/17 03:39:53;;;;;;;42.50;24.13;;;;;;;;;;6219116;28;20543;-59
2022/08/17 03:42:54;;;;;;;40.13;23.60;;;;;;;;;;6220854;28;20177;-54
2022/08/17 03:59:17;;;;;;;39.03;22.65;;;;;;;;;;6225717;28;20132;-56
2022/08/17 04:02:23;;;;;;;41.50;24.92;;;;;;;;;;6225089;28;20075;-60
2022/08/17 04:05:23;;;;;;;40.85;22.85;;;;;;;;;;6222154;28;20136;-59
2022/08/17 04:08:24;;;;;;;45.83;25.67;;;;;;;;;;6220271;28;20057;-59
2022/08/17 04:11:24;;;;;;;49.10;25.97;;;;;;;;;;6222757;28;20046;-57
2022/08/17 04:14:25;;;;;;;42.00;24.67;;;;;;;;;;6222583;28;20054;-58
2022/08/17 04:17:27;;;;;;;49.80;26.47;;;;;;;;;;6233020;28;20045;-58
2022/08/17 04:20:28;;;;;;;46.45;25.92;;;;;;;;;;6236527;28;20049;-56
2022/08/17 04:23:32;;;;;;;42.33;25.43;;;;;;;;;;6220723;28;20393;-56
2022/08/17 04:26:33;;;;;;;46.85;24.95;;;;;;;;;;6222752;28;20071;-55
2022/08/17 04:29:34;;;;;;;43.23;25.57;;;;;;;;;;6221775;28;20120;-56
2022/08/17 04:33:07;;;;;;;49.60;26.50;;;;;;;;;;6232841;28;20488;-59
2022/08/17 04:36:07;;;;;;;45.92;25.58;;;;;;;;;;6227518;28;20045;-59
2022/08/17 04:39:08;;;;;;;49.33;25.97;;;;;;;;;;6240417;28;20917;-59
2022/08/17 04:42:15;;;;;;;51.40;27.57;;;;;;;;;;6241276;28;20540;-60
2022/08/17 04:45:16;;;;;;;43.60;24.95;;;;;;;;;;6233237;28;20054;-58
2022/08/17 04:48:17;;;;;;;50.77;28.60;;;;;;;;;;6240761;28;20665;-59
2022/08/17 04:51:19;;;;;;;48.67;27.63;;;;;;;;;;6236397;28;20042;-57
2022/08/17 04:54:21;;;;;;;52.55;29.08;;;;;;;;;;6235957;28;20067;-56
2022/08/17 04:57:21;;;;;;;62.33;31.05;;;;;;;;;;6239669;28;20049;-57
2022/08/17 05:00:24;;;;;;;61.77;33.77;;;;;;;;;;6240872;28;20041;-59
2022/08/17 05:03:25;;;;;;;71.80;36.50;;;;;;;;;;6241568;28;20156;-55
2022/08/17 05:06:27;;;;;;;65.00;35.70;;;;;;;;;;6236927;28;20483;-55
2022/08/17 05:09:27;;;;;;;67.43;35.10;;;;;;;;;;6238728;28;20508;-55
2022/08/17 05:12:28;;;;;;;68.07;35.13;;;;;;;;;;6241412;28;20057;-60
2022/08/17 05:15:29;;;;;;;67.97;35.43;;;;;;;;;;6237396;28;20042;-61
2022/08/17 05:18:31;;;;;;;80.45;39.65;;;;;;;;;;6241065;28;20049;-59
2022/08/17 05:21:31;;;;;;;77.65;40.22;;;;;;;;;;6238495;28;20140;-59
2022/08/17 05:24:33;;;;;;;76.80;40.63;;;;;;;;;;6237605;28;20067;-59
2022/08/17 05:27:35;;;;;;;78.90;41.38;;;;;;;;;;6235258;28;20447;-58
2022/08/17 05:30:37;;;;;;;85.32;42.75;;;;;;;;;;6240104;28;20033;-57
2022/08/17 05:33:40;;;;;;;84.88;42.70;;;;;;;;;;6238801;28;20041;-59
2022/08/17 05:36:40;;;;;;;85.72;42.58;;;;;;;;;;6238072;28;20584;-57
2022/08/17 05:39:41;;;;;;;78.23;40.70;;;;;;;;;;6239765;28;20136;-57
2022/08/17 05:42:42;;;;;;;72.57;40.57;;;;;;;;;;6221603;28;20412;-58
2022/08/17 05:46:25;;;;;;;76.68;41.55;;;;;;;;;;6237035;28;20053;-60
2022/08/17 05:49:27;;;;;;;78.35;40.65;;;;;;;;;;6214129;28;20046;-52
2022/08/17 05:52:35;;;;;;;75.90;42.08;;;;;;;;;;6198410;28;20046;-56
2022/08/17 05:56:12;;;;;;;74.72;39.80;;;;;;;;;;6195243;28;20456;-53
2022/08/17 05:59:40;;;;;;;72.28;39.00;;;;;;;;;;6190664;28;20791;-56
2022/08/17 06:02:41;;;;;;;71.80;39.75;;;;;;;;;;6191726;28;20050;-59
2022/08/17 06:05:56;;;;;;;70.32;39.65;;;;;;;;;;6190737;28;20057;-58
2022/08/17 06:09:23;;;;;;;69.80;37.33;;;;;;;;;;6194276;28;20503;-53
2022/08/17 06:12:31;;;;;;;69.60;38.30;;;;;;;;;;6195765;28;20046;-55
2022/08/17 06:15:51;;;;;;;71.07;39.28;;;;;;;;;;6191029;28;20824;-59
2022/08/17 06:18:57;;;;;;;72.80;37.28;;;;;;;;;;6194052;28;20084;-56
2022/08/17 06:21:58;;;;;;;65.65;37.55;;;;;;;;;;6193954;28;20141;-56
2022/08/17 06:25:03;;;;;;;65.47;36.90;;;;;;;;;;6192816;28;20061;-59
2022/08/17 06:28:08;;;;;;;66.70;38.40;;;;;;;;;;6193160;28;20738;-57
2022/08/17 06:31:27;;;;;;;70.82;35.53;;;;;;;;;;6192095;28;20050;-55
2022/08/17 06:34:28;;;;;;;63.22;36.25;;;;;;;;;;6193738;28;20450;-57
2022/08/17 06:37:51;;;;;;;62.63;35.25;;;;;;;;;;6189867;28;20042;-60
2022/08/17 06:41:03;;;;;;;62.60;33.78;;;;;;;;;;6191803;28;20057;-55
2022/08/17 06:44:33;;;;;;;63.95;35.15;;;;;;;;;;6193131;28;20046;-50
2022/08/17 06:47:47;;;;;;;59.85;34.10;;;;;;;;;;6208424;28;20474;-52
2022/08/17 06:50:53;;;;;;;59.80;32.65;;;;;;;;;;6225596;28;20045;-54
2022/08/17 06:54:06;;;;;;;58.88;32.67;;;;;;;;;;6242932;28;20050;-55
2022/08/17 06:57:13;;;;;;;60.03;32.75;;;;;;;;;;6232618;28;20048;-56
2022/08/17 07:00:21;;;;;;;58.35;32.63;;;;;;;;;;6243175;28;20065;-59
2022/08/17 07:03:36;;;;;;;55.53;31.95;;;;;;;;;;6241909;28;20041;-57
2022/08/17 07:06:45;;;;;;;55.10;30.63;;;;;;;;;;6235155;28;20057;-51
2022/08/17 07:09:47;;;;;;;42.22;25.42;;;;;;;;;;6240094;28;20417;-58
2022/08/17 07:12:51;;;;;;;51.60;26.02;;;;;;;;;;6242202;28;20155;-59
2022/08/17 07:15:57;;;;;;;51.58;27.95;;;;;;;;;;6242047;28;20045;-54
2022/08/17 07:18:58;;;;;;;50.72;28.73;;;;;;;;;;6242819;28;20041;-54
2022/08/17 07:22:12;;;;;;;50.58;27.90;;;;;;;;;;6242653;28;20045;-57
2022/08/17 07:25:18;;;;;;;49.47;25.92;;;;;;;;;;6219329;28;20595;-60
2022/08/17 07:28:21;;;;;;;49.85;25.40;;;;;;;;;;6220796;28;20042;-58
2022/08/17 07:31:24;;;;;;;51.83;25.50;;;;;;;;;;6221741;28;20488;-59
2022/08/17 07:34:26;;;;;;;44.08;22.48;;;;;;;;;;6222394;28;20056;-62
2022/08/17 07:37:26;;;;;;;44.83;22.98;;;;;;;;;;6219392;28;20049;-61
2022/08/17 07:40:32;;;;;;;43.57;22.90;;;;;;;;;;6220518;28;20247;-59
2022/08/17 07:43:38;;;;;;;41.85;23.98;;;;;;;;;;6220717;28;20103;-60
2022/08/17 07:50:28;;;;;;;44.45;24.10;;;;;;;;;;6231806;28;20091;-60
2022/08/17 07:53:30;;;;;;;45.72;24.58;;;;;;;;;;6220511;28;20041;-60
2022/08/17 07:56:56;;;;;;;53.17;25.95;;;;;;;;;;6241632;28;20140;-61
2022/08/17 07:59:59;;;;;;;51.33;27.98;;;;;;;;;;6233093;28;20033;-60
2022/08/17 08:03:10;;;;;;;52.28;27.38;;;;;;;;;;6227306;28;20484;-61
2022/08/17 08:06:21;;;;;;;51.10;26.95;;;;;;;;;;6217035;28;20188;-60
2022/08/17 08:09:35;;;;;;;53.55;28.15;;;;;;;;;;6215315;28;20480;-53
2022/08/17 08:12:47;;;;;;;49.22;27.25;;;;;;;;;;6215398;28;20071;-59
2022/08/17 08:15:53;;;;;;;54.97;27.42;;;;;;;;;;6216983;28;20061;-60
2022/08/17 08:18:57;;;;;;;46.42;27.17;;;;;;;;;;6215919;28;20050;-59
2022/08/17 08:22:14;;;;;;;48.85;26.63;;;;;;;;;;6226505;28;20041;-57
2022/08/17 08:25:39;;;;;;;46.15;27.98;;;;;;;;;;6239344;28;20052;-59
2022/08/17 08:28:43;;;;;;;53.85;27.45;;;;;;;;;;6238813;28;20871;-59
2022/08/17 08:32:02;;;;;;;50.33;28.88;;;;;;;;;;6240968;28;20041;-54
2022/08/17 08:35:30;;;;;;;50.50;28.65;;;;;;;;;;6240889;28;20057;-56
2022/08/17 08:38:49;;;;;;;47.70;26.52;;;;;;;;;;6237554;28;20514;-54
2022/08/17 08:42:02;;;;;;;48.40;27.05;;;;;;;;;;6226240;28;20053;-52
2022/08/17 08:45:10;;;;;;;52.13;27.58;;;;;;;;;;6219004;28;20710;-51
2022/08/17 08:48:30;;;;;;;51.90;28.13;;;;;;;;;;6216944;28;20421;-56
2022/08/17 08:51:52;;;;;;;45.50;26.45;;;;;;;;;;6226937;28;20472;-58
2022/08/17 08:54:56;;;;;;;;;;;;;;;;;;6227986;28;20084;-56
2022/08/17 08:58:07;;;;;;;45.53;25.60;;;;;;;;;;6222806;28;19921;-52
2022/08/17 09:01:17;;;;;;;38.40;24.45;;;;;;;;;;6219165;28;20481;-53
2022/08/17 09:04:29;;;;;;;43.83;24.48;;;;;;;;;;6218187;28;20606;-59
2022/08/17 09:07:47;;;;;;;45.10;26.50;;;;;;;;;;6219272;28;20404;-56
2022/08/17 09:11:05;;;;;;;41.58;26.02;;;;;;;;;;6216661;28;20060;-54
2022/08/17 09:14:46;;;;;;;48.42;25.45;;;;;;;;;;6225974;28;20049;-54
2022/08/17 09:17:54;;;;;;;47.08;25.85;;;;;;;;;;6161887;28;20177;-56
2022/08/17 09:21:02;;;;;;;47.67;24.92;;;;;;;;;;6239389;28;20878;-59
2022/08/17 09:24:30;;;;;;;50.63;26.52;;;;;;;;;;6240558;28;20141;-54
2022/08/17 09:27:37;;;;;;;46.58;24.90;;;;;;;;;;6234718;28;20117;-55
2022/08/17 09:30:44;;;;;;;39.72;22.77;;;;;;;;;;6220759;28;20787;-53
2022/08/17 09:33:47;;;;;;;34.92;21.63;;;;;;;;;;6239682;28;20041;-55
2022/08/17 09:37:27;;;;;;;37.53;22.35;;;;;;;;;;6239622;28;20049;-54
2022/08/17 09:40:50;;;;;;;35.63;22.02;;;;;;;;;;6168603;28;20041;-56
2022/08/17 09:44:05;;;;;;;39.13;21.65;;;;;;;;;;6164872;28;20057;-55
2022/08/17 09:47:24;;;;;;;40.42;21.98;;;;;;;;;;6209560;28;20054;-54
2022/08/17 09:50:35;;;;;;;43.20;22.25;;;;;;;;;;6193561;28;20058;-53
2022/08/17 09:53:37;;;;;;;36.58;21.90;;;;;;;;;;6191297;28;20053;-57
2022/08/17 09:57:17;;;;;;;36.33;20.42;;;;;;;;;;6192190;28;20443;-53
2022/08/17 10:00:31;;;;;;;35.58;20.90;;;;;;;;;;6192454;28;20077;-55
2022/08/17 10:04:07;;;;;;;35.65;20.90;;;;;;;;;;6192948;28;20058;-55
2022/08/17 10:07:26;;;;;;;36.28;21.48;;;;;;;;;;6206706;28;20460;-57
2022/08/17 10:10:35;;;;;;;39.63;22.50;;;;;;;;;;6213040;28;20503;-57
2022/08/17 10:13:46;;;;;;;38.30;22.77;;;;;;;;;;6211410;28;20609;-55
2022/08/17 10:16:54;;;;;;;;;;;;;;;;;;6215318;28;20133;-58
2022/08/17 10:20:04;;;;;;;36.53;21.63;;;;;;;;;;6214758;28;20364;-56
2022/08/17 10:26:37;;;;;;;38.63;21.70;;;;;;;;;;6218245;28;20046;-57
2022/08/17 10:29:48;;;;;;;32.08;20.98;;;;;;;;;;6219848;28;20046;-54
2022/08/17 10:32:58;;;;;;;35.45;20.30;;;;;;;;;;6219496;28;20058;-54
2022/08/17 10:36:09;;;;;;;35.10;20.30;;;;;;;;;;6218428;28;20172;-56
2022/08/17 10:39:27;;;;;;;31.35;19.75;;;;;;;;;;6218305;28;20627;-55
2022/08/17 10:42:35;;;;;;;34.83;20.60;;;;;;;;;;6218882;28;20042;-54
2022/08/17 10:45:47;;;;;;;36.35;21.65;;;;;;;;;;6219131;28;20038;-55
2022/08/17 10:49:16;;;;;;;36.25;20.42;;;;;;;;;;6229872;28;20050;-54
2022/08/17 10:52:26;;;;;;;38.28;20.85;;;;;;;;;;6221283;28;20052;-55
2022/08/17 10:55:28;;;;;;;37.60;19.75;;;;;;;;;;6223549;28;20062;-54
2022/08/17 10:58:37;;;;;;;36.42;19.83;;;;;;;;;;6221622;28;20056;-54
2022/08/17 11:01:37;;;;;;;39.58;20.40;;;;;;;;;;6221735;28;20050;-57
2022/08/17 11:05:06;;;;;;;39.17;20.97;;;;;;;;;;6222038;28;20045;-53
2022/08/17 11:08:36;;;;;;;40.25;20.58;;;;;;;;;;6223282;28;20473;-58
2022/08/17 11:11:48;;;;;;;37.50;20.63;;;;;;;;;;6222318;28;20057;-53
2022/08/17 11:15:10;;;;;;;40.85;22.30;;;;;;;;;;6219941;28;20767;-53
2022/08/17 11:18:32;;;;;;;38.80;22.70;;;;;;;;;;6223188;28;20092;-51
2022/08/17 11:21:59;;;;;;;39.15;22.52;;;;;;;;;;6221707;28;20102;-53
2022/08/17 11:25:30;;;;;;;45.92;24.70;;;;;;;;;;6222541;28;20161;-54
2022/08/17 11:28:34;;;;;;;40.63;23.08;;;;;;;;;;6225165;28;20127;-56
2022/08/17 11:31:39;;;;;;;46.10;25.42;;;;;;;;;;6223046;28;20060;-56
2022/08/17 11:34:43;;;;;;;40.67;24.27;;;;;;;;;;6222899;28;20470;-56
2022/08/17 11:38:01;;;;;;;45.13;25.25;;;;;;;;;;6220833;28;20060;-55
2022/08/17 11:41:30;;;;;;;52.88;25.80;;;;;;;;;;6222388;28;20594;-55
2022/08/17 11:44:55;;;;;;;48.53;27.15;;;;;;;;;;6219580;28;20100;-53
2022/08/17 11:52:09;;;;;;;45.60;26.38;;;;;;;;;;6240791;28;20049;-57
2022/08/17 11:55:34;;;;;;;49.53;27.35;;;;;;;;;;6237587;28;20435;-52
2022/08/17 11:58:41;;;;;;;49.10;26.67;;;;;;;;;;6234922;28;20084;-57
2022/08/17 12:01:55;;;;;;;48.10;26.27;;;;;;;;;;6239929;28;20044;-57
2022/08/17 12:05:16;;;;;;;40.53;25.58;;;;;;;;;;6240585;28;20381;-55
2022/08/17 12:08:20;;;;;;;48.13;27.13;;;;;;;;;;6229986;28;20045;-54
2022/08/17 12:11:44;;;;;;;46.65;27.58;;;;;;;;;;6240173;28;20057;-60
2022/08/17 12:14:56;;;;;;;46.65;28.08;;;;;;;;;;6237410;28;20181;-55
2022/08/17 12:17:57;;;;;;;46.33;27.35;;;;;;;;;;6238810;28;20508;-55
2022/08/17 12:21:19;;;;;;;44.80;27.35;;;;;;;;;;6235921;28;20049;-56
2022/08/17 12:24:34;;;;;;;45.25;27.73;;;;;;;;;;6213989;28;20065;-51
2022/08/17 12:27:42;;;;;;;47.13;27.83;;;;;;;;;;6219968;28;20106;-51
2022/08/17 12:30:48;;;;;;;39.78;26.17;;;;;;;;;;6218357;28;22282;-51
2022/08/17 12:33:50;;;;;;;41.38;24.70;;;;;;;;;;6216548;28;20128;-54
2022/08/17 12:36:57;;;;;;;37.45;22.67;;;;;;;;;;6214884;28;20087;-53
2022/08/17 12:40:02;;;;;;;34.45;21.73;;;;;;;;;;6219000;28;20063;-56
2022/08/17 12:43:06;;;;;;;35.20;20.67;;;;;;;;;;6223949;28;20843;-57
2022/08/17 12:46:16;;;;;;;34.92;21.00;;;;;;;;;;6217306;28;20136;-56
2022/08/17 12:49:25;;;;;;;38.20;21.65;;;;;;;;;;6221512;28;20053;-55
2022/08/17 12:52:31;;;;;;;36.67;22.02;;;;;;;;;;6217601;28;20045;-52
2022/08/17 12:55:36;;;;;;;36.72;22.00;;;;;;;;;;6218516;28;20037;-53
2022/08/17 12:58:46;;;;;;;36.08;22.40;;;;;;;;;;6216629;28;20057;-54
2022/08/17 13:01:47;;;;;;;39.92;24.27;;;;;;;;;;6217943;28;20052;-58
2022/08/17 13:04:48;;;;;;;39.95;24.75;;;;;;;;;;6216003;28;20057;-56
2022/08/17 13:07:49;;;;;;;39.03;25.50;;;;;;;;;;6217433;28;20056;-52
2022/08/17 13:11:02;;;;;;;40.22;24.73;;;;;;;;;;6216955;28;20828;-57
2022/08/17 13:14:09;;;;;;;41.60;23.55;;;;;;;;;;6225911;28;20044;-53
2022/08/17 13:17:10;;;;;;;41.17;24.85;;;;;;;;;;6227768;28;20075;-59
2022/08/17 13:20:13;;;;;;;39.60;24.90;;;;;;;;;;6225755;28;20045;-57
2022/08/17 13:23:18;;;;;;;40.95;24.67;;;;;;;;;;6219288;28;20056;-59
2022/08/17 13:26:28;;;;;;;39.22;22.08;;;;;;;;;;6218103;28;20496;-59
2022/08/17 13:29:34;;;;;;;38.00;22.73;;;;;;;;;;6221222;28;20057;-57
2022/08/17 13:32:40;;;;;;;36.08;23.08;;;;;;;;;;6214757;28;20412;-53
2022/08/17 13:35:44;;;;;;;35.35;21.52;;;;;;;;;;6220321;28;20080;-52
2022/08/17 13:38:50;;;;;;;42.05;22.02;;;;;;;;;;6216825;28;20831;-56
2022/08/17 13:41:54;;;;;;;39.53;22.30;;;;;;;;;;6213677;28;20038;-58
2022/08/17 13:44:55;;;;;;;36.40;22.30;;;;;;;;;;6215523;28;20068;-55
2022/08/17 13:48:08;;;;;;;35.55;22.27;;;;;;;;;;6218373;28;20059;-57
2022/08/17 13:51:15;;;;;;;35.63;21.90;;;;;;;;;;6217106;28;20056;-58
2022/08/17 13:54:31;;;;;;;37.88;21.15;;;;;;;;;;6219721;28;20049;-51
2022/08/17 13:57:32;;;;;;;37.47;20.88;;;;;;;;;;6228465;28;20471;-60
2022/08/17 14:00:35;;;;;;;33.83;20.65;;;;;;;;;;6225272;28;20050;-53
2022/08/17 14:03:35;;;;;;;38.00;21.55;;;;;;;;;;6219176;28;20128;-53
2022/08/17 14:06:47;;;;;;;34.47;21.00;;;;;;;;;;6218294;28;20565;-59
2022/08/17 14:09:53;;;;;;;31.77;20.23;;;;;;;;;;6221494;28;20484;-56
2022/08/17 14:12:54;;;;;;;29.27;18.50;;;;;;;;;;6220164;28;20041;-50
2022/08/17 14:15:55;;;;;;;31.30;18.33;;;;;;;;;;6219553;28;20485;-59
2022/08/17 14:18:55;;;;;;;;;;;;;;;;;;6222004;28;20416;-59
2022/08/17 14:21:57;;;;;;;35.63;19.47;;;;;;;;;;6202862;28;19929;-57
2022/08/17 14:25:02;;;;;;;34.10;19.02;;;;;;;;;;6221232;28;20045;-53
2022/08/17 14:28:05;;;;;;;29.70;19.15;;;;;;;;;;6218847;28;20465;-57
2022/08/17 14:31:07;;;;;;;28.38;17.55;;;;;;;;;;6218870;28;20100;-56
2022/08/17 14:34:09;;;;;;;33.78;19.80;;;;;;;;;;6216809;28;20066;-54
2022/08/17 14:37:11;;;;;;;32.47;19.67;;;;;;;;;;6221796;28;20074;-56
2022/08/17 14:40:13;;;;;;;33.67;20.50;;;;;;;;;;6220372;28;20511;-54
2022/08/17 14:43:14;;;;;;;31.23;19.92;;;;;;;;;;6225530;28;20109;-57
2022/08/17 14:46:15;;;;;;;;;;;;;;;;;;6225300;28;20061;-56
2022/08/17 14:49:18;;;;;;;35.90;19.70;;;;;;;;;;6229252;28;20107;-55
2022/08/17 14:52:20;;;;;;;33.08;19.80;;;;;;;;;;6227956;28;20649;-52
2022/08/17 14:55:21;;;;;;;36.88;19.77;;;;;;;;;;6228188;28;20146;-50
2022/08/17 14:58:22;;;;;;;;;;;;;;;;;;6230994;28;20716;-50
2022/08/17 15:01:24;;;;;;;31.00;19.13;;;;;;;;;;6229979;28;19986;-53
2022/08/17 15:04:25;;;;;;;36.47;19.42;;;;;;;;;;6227796;28;20052;-53
2022/08/17 15:07:25;;;;;;;;;;;;;;;;;;6228905;28;20601;-54
2022/08/17 15:10:27;;;;;;;29.93;19.13;;;;;;;;;;6234522;28;19952;-55
2022/08/17 15:13:28;;;;;;;29.98;19.13;;;;;;;;;;6232258;28;20049;-53
2022/08/17 15:16:29;;;;;;;;;;;;;;;;;;6233101;28;20562;-53
2022/08/17 15:19:29;;;;;;;27.77;17.83;;;;;;;;;;6234377;28;19925;-54
2022/08/17 15:22:30;;;;;;;30.83;18.05;;;;;;;;;;6232066;28;20049;-54
2022/08/17 15:25:32;;;;;;;36.13;18.92;;;;;;;;;;6232916;28;20419;-53
2022/08/17 15:28:32;;;;;;;32.75;18.58;;;;;;;;;;6233823;28;20597;-52
2022/08/17 15:31:33;;;;;;;;;;;;;;;;;;6234954;28;20041;-56
2022/08/17 15:34:33;;;;;;;33.13;19.20;;;;;;;;;;6223369;28;19933;-54
2022/08/17 15:37:35;;;;;;;28.40;18.20;;;;;;;;;;6223200;28;20061;-55
2022/08/17 15:40:38;;;;;;;29.38;18.00;;;;;;;;;;6221890;28;20045;-51
2022/08/17 15:43:40;;;;;;;33.67;19.13;;;;;;;;;;6221103;28;20053;-55
2022/08/17 15:46:40;;;;;;;30.02;18.15;;;;;;;;;;6226714;28;20052;-53
2022/08/17 15:49:42;;;;;;;;;;;;;;;;;;6229517;28;20041;-56
2022/08/17 15:52:43;;;;;;;29.10;18.15;;;;;;;;;;6230654;28;20406;-54
2022/08/17 15:55:44;;;;;;;31.52;18.95;;;;;;;;;;6231595;28;20905;-59
2022/08/17 15:58:45;;;;;;;;;;;;;;;;;;6232909;28;20049;-49
2022/08/17 16:01:47;;;;;;;32.22;19.80;;;;;;;;;;6232494;28;19928;-54
2022/08/17 16:04:48;;;;;;;30.85;19.27;;;;;;;;;;6229705;28;20637;-57
2022/08/17 16:07:49;;;;;;;32.40;19.55;;;;;;;;;;6229957;28;20127;-59
2022/08/17 16:10:50;;;;;;;;;;;;;;;;;;6232078;28;21568;-57
2022/08/17 16:13:50;;;;;;;32.05;19.40;;;;;;;;;;6230359;28;20023;-58
2022/08/17 16:16:51;;;;;;;;;;;;;;;;;;6230381;28;20057;-55
2022/08/17 16:19:52;;;;;;;31.27;19.63;;;;;;;;;;6230757;28;20120;-57
2022/08/17 16:22:52;;;;;;;33.47;20.08;;;;;;;;;;6225497;28;20590;-53
2022/08/17 16:25:53;;;;;;;;;;;;;;;;;;6229336;28;20045;-59
2022/08/17 16:28:55;;;;;;;34.83;19.87;;;;;;;;;;6229177;28;21432;-57
2022/08/17 16:31:56;;;;;;;30.60;18.50;;;;;;;;;;6228741;28;20471;-56
2022/08/17 16:35:00;;;;;;;;;;;;;;;;;;6228057;28;20107;-55
2022/08/17 16:38:01;;;;;;;31.55;18.25;;;;;;;;;;6229286;28;20322;-54
2022/08/17 16:41:02;;;;;;;;;;;;;;;;;;6230854;28;20061;-61
2022/08/17 16:44:04;;;;;;;31.83;18.67;;;;;;;;;;6229533;28;19921;-49
2022/08/17 16:47:06;;;;;;;32.40;19.08;;;;;;;;;;6230666;28;20455;-51
2022/08/17 16:50:08;;;;;;;33.47;18.95;;;;;;;;;;6231355;28;20092;-54
2022/08/17 16:53:16;;;;;;;32.42;19.55;;;;;;;;;;6229702;28;20053;-54
2022/08/17 16:56:17;;;;;;;31.30;19.33;;;;;;;;;;6230059;28;20136;-55
2022/08/17 16:59:17;;;;;;;30.25;18.88;;;;;;;;;;6231288;28;20060;-58
2022/08/17 17:02:35;;;;;;;;;;;;;;;;;;6230403;28;20057;-54
2022/08/17 17:06:02;;;;;;;30.20;19.00;;;;;;;;;;6228661;28;20395;-54
2022/08/17 17:09:10;;;;;;;32.25;18.85;;;;;;;;;;6228551;28;20472;-56
2022/08/17 17:12:17;;;;;;;29.50;19.38;;;;;;;;;;6226016;28;20139;-52
2022/08/17 17:15:18;;;;;;;32.38;18.45;;;;;;;;;;6227304;28;20085;-56
2022/08/17 17:18:19;;;;;;;;;;;;;;;;;;6228968;28;20049;-59
2022/08/17 17:21:26;;;;;;;35.05;18.83;;;;;;;;;;6228792;28;21517;-60
2022/08/17 17:24:38;;;;;;;32.70;18.90;;;;;;;;;;6229266;28;20132;-56
2022/08/17 17:27:59;;;;;;;30.25;18.98;;;;;;;;;;6229956;28;20067;-56
2022/08/17 17:31:03;;;;;;;;;;;;;;;;;;6227130;28;20049;-59
2022/08/17 17:34:07;;;;;;;33.60;19.48;;;;;;;;;;6227346;28;20023;-55
2022/08/17 17:37:21;;;;;;;38.20;20.83;;;;;;;;;;6228020;28;20033;-59
2022/08/17 17:40:34;;;;;;;35.38;20.45;;;;;;;;;;6229370;28;20045;-66
2022/08/17 17:43:36;;;;;;;36.20;20.05;;;;;;;;;;6226877;28;20045;-58
2022/08/17 17:46:41;;;;;;;37.63;20.40;;;;;;;;;;6229565;28;21211;-57
2022/08/17 17:49:44;;;;;;;36.15;21.60;;;;;;;;;;6230040;28;20128;-58
2022/08/17 17:53:21;;;;;;;32.83;20.73;;;;;;;;;;6226457;28;21508;-58
2022/08/17 17:56:33;;;;;;;36.40;21.05;;;;;;;;;;6227746;28;20496;-57
2022/08/17 18:00:05;;;;;;;36.35;21.30;;;;;;;;;;6229295;28;20067;-59
2022/08/17 18:03:19;;;;;;;41.42;23.50;;;;;;;;;;6224472;28;20084;-58
2022/08/17 18:06:47;;;;;;;42.50;23.30;;;;;;;;;;6227254;28;20053;-57
2022/08/17 18:09:54;;;;;;;39.15;21.98;;;;;;;;;;6226010;28;20100;-57
2022/08/17 18:13:08;;;;;;;40.10;24.23;;;;;;;;;;6226007;28;20045;-59
2022/08/17 18:16:12;;;;;;;44.92;23.70;;;;;;;;;;6227069;28;20088;-55
2022/08/17 18:19:19;;;;;;;38.90;23.42;;;;;;;;;;6226641;28;20041;-58
2022/08/17 18:22:22;;;;;;;46.25;24.05;;;;;;;;;;6224004;28;20049;-59
2022/08/17 18:25:43;;;;;;;37.40;22.23;;;;;;;;;;6227938;28;20103;-57
2022/08/17 18:28:50;;;;;;;54.88;27.67;;;;;;;;;;6226539;28;20050;-57
2022/08/17 18:32:14;;;;;;;65.60;29.73;;;;;;;;;;6223607;28;20519;-57
2022/08/17 18:35:18;;;;;;;50.75;26.58;;;;;;;;;;6221299;28;20041;-57
2022/08/17 18:38:28;;;;;;;49.08;26.17;;;;;;;;;;6224929;28;20049;-59
2022/08/17 18:41:39;;;;;;;50.38;26.20;;;;;;;;;;6226284;28;21127;-56